Time;durP1;ratioP1;P1;durP2;ratioP2;P2;SDS_P1;SDS_P2;PMS_P1;PMS_P2;Temp;Humidity;BMP_temperature;BMP_pressure;BME280_temperature;BME280_humidity;BME280_pressure;Samples;Min_cycle;Max_cycle;Signal;HPM_P1;HPM_P2
2022/05/16 00:01:10;;;;;;;10.82;2.20;;;;;;;;;;4899758;29;20439;-68
2022/05/16 00:03:36;;;;;;;11.30;2.10;;;;;;;;;;4898972;29;20024;-68
2022/05/16 00:06:03;;;;;;;7.25;2.05;;;;;;;;;;4899084;29;20027;-68
2022/05/16 00:08:29;;;;;;;9.27;2.28;;;;;;;;;;4899110;29;20025;-69
2022/05/16 00:10:56;;;;;;;8.13;1.98;;;;;;;;;;4898809;29;20021;-68
2022/05/16 00:13:25;;;;;;;11.20;2.38;;;;;;;;;;4899933;29;20032;-68
2022/05/16 00:15:52;;;;;;;5.68;1.75;;;;;;;;;;4899185;29;20056;-68
2022/05/16 00:18:19;;;;;;;8.18;2.13;;;;;;;;;;4897476;29;20048;-68
2022/05/16 00:20:45;;;;;;;6.93;1.92;;;;;;;;;;4898577;29;20442;-68
2022/05/16 00:23:11;;;;;;;9.43;2.08;;;;;;;;;;4898869;29;20032;-68
2022/05/16 00:25:37;;;;;;;6.15;1.75;;;;;;;;;;4898713;29;20021;-69
2022/05/16 00:28:04;;;;;;;7.35;2.17;;;;;;;;;;4898316;29;20039;-68
2022/05/16 00:30:30;;;;;;;11.35;1.88;;;;;;;;;;4898601;29;20031;-68
2022/05/16 00:32:57;;;;;;;10.40;1.83;;;;;;;;;;4898624;29;20025;-68
2022/05/16 00:35:23;;;;;;;9.30;1.92;;;;;;;;;;4898722;29;20029;-68
2022/05/16 00:37:50;;;;;;;5.78;1.88;;;;;;;;;;4898537;29;20091;-68
2022/05/16 00:40:17;;;;;;;10.50;2.05;;;;;;;;;;4897786;29;20032;-68
2022/05/16 00:42:43;;;;;;;8.65;1.98;;;;;;;;;;4898322;29;20475;-68
2022/05/16 00:45:12;;;;;;;6.13;2.03;;;;;;;;;;4898247;29;20024;-68
2022/05/16 00:47:38;;;;;;;8.50;2.13;;;;;;;;;;4898308;29;20035;-68
2022/05/16 00:50:05;;;;;;;6.65;1.73;;;;;;;;;;4898382;29;20050;-68
2022/05/16 00:52:34;;;;;;;8.10;2.00;;;;;;;;;;4898202;29;20017;-68
2022/05/16 00:55:03;;;;;;;6.68;2.08;;;;;;;;;;4898262;29;20039;-68
2022/05/16 00:57:43;;;;;;;9.85;1.90;;;;;;;;;;4898105;29;20516;-68
2022/05/16 01:00:15;;;;;;;5.97;2.00;;;;;;;;;;4898099;29;20020;-68
2022/05/16 01:05:30;;;;;;;7.65;1.88;;;;;;;;;;4898351;29;20025;-69
2022/05/16 01:08:02;;;;;;;11.93;2.42;;;;;;;;;;4897747;29;20024;-68
2022/05/16 01:10:28;;;;;;;4.55;1.60;;;;;;;;;;4894670;29;20017;-68
2022/05/16 01:12:55;;;;;;;7.55;1.90;;;;;;;;;;4897806;29;20039;-68
2022/05/16 01:15:24;;;;;;;8.90;1.90;;;;;;;;;;4897968;29;20024;-68
2022/05/16 01:17:50;;;;;;;7.22;1.98;;;;;;;;;;4897706;29;20051;-68
2022/05/16 01:20:17;;;;;;;10.70;2.25;;;;;;;;;;4897858;29;20494;-68
2022/05/16 01:22:47;;;;;;;9.38;1.75;;;;;;;;;;4897479;29;20398;-68
2022/05/16 01:25:16;;;;;;;12.40;2.27;;;;;;;;;;4896801;29;20029;-68
2022/05/16 01:27:44;;;;;;;7.40;1.80;;;;;;;;;;4897745;29;20039;-68
2022/05/16 01:30:12;;;;;;;11.25;2.55;;;;;;;;;;4912148;29;20029;-68
2022/05/16 01:32:38;;;;;;;6.40;1.83;;;;;;;;;;4897427;29;20020;-68
2022/05/16 01:35:05;;;;;;;5.43;1.65;;;;;;;;;;4897568;29;20376;-68
2022/05/16 01:40:16;;;;;;;11.32;2.70;;;;;;;;;;4896636;29;20387;-68
2022/05/16 01:42:43;;;;;;;8.85;2.10;;;;;;;;;;4897264;29;20054;-68
2022/05/16 01:45:09;;;;;;;5.90;1.92;;;;;;;;;;4897316;29;20032;-68
2022/05/16 01:47:36;;;;;;;8.98;2.10;;;;;;;;;;4897280;29;20512;-68
2022/05/16 01:50:03;;;;;;;10.05;1.80;;;;;;;;;;4897389;29;20023;-68
2022/05/16 01:52:29;;;;;;;6.10;1.60;;;;;;;;;;4911987;29;20413;-68
2022/05/16 01:54:56;;;;;;;5.65;1.67;;;;;;;;;;4897126;29;20024;-68
2022/05/16 01:57:22;;;;;;;8.13;1.92;;;;;;;;;;4897046;29;20036;-69
2022/05/16 01:59:48;;;;;;;6.13;2.05;;;;;;;;;;4897108;29;20508;-68
2022/05/16 02:02:15;;;;;;;9.45;2.22;;;;;;;;;;4897048;29;20032;-68
2022/05/16 02:04:42;;;;;;;9.18;2.00;;;;;;;;;;4897241;29;20036;-68
2022/05/16 02:07:08;;;;;;;6.57;2.17;;;;;;;;;;4897085;29;20028;-68
2022/05/16 02:09:34;;;;;;;7.00;1.98;;;;;;;;;;4896884;29;20035;-68
2022/05/16 02:12:00;;;;;;;6.82;2.20;;;;;;;;;;4897059;29;20044;-68
2022/05/16 02:14:27;;;;;;;5.95;1.60;;;;;;;;;;4897095;29;20024;-68
2022/05/16 02:16:53;;;;;;;10.45;1.98;;;;;;;;;;4896909;29;20036;-68
2022/05/16 02:19:19;;;;;;;10.85;2.30;;;;;;;;;;4897354;29;20028;-68
2022/05/16 02:24:40;;;;;;;8.07;1.88;;;;;;;;;;4896760;29;20494;-68
2022/05/16 02:27:10;;;;;;;9.60;1.90;;;;;;;;;;4896698;29;20028;-68
2022/05/16 02:29:37;;;;;;;8.63;1.85;;;;;;;;;;4897051;29;20013;-68
2022/05/16 02:32:04;;;;;;;7.72;1.80;;;;;;;;;;4896636;29;20540;-68
2022/05/16 02:34:30;;;;;;;11.75;2.10;;;;;;;;;;4897116;29;20032;-68
2022/05/16 02:36:57;;;;;;;6.15;2.00;;;;;;;;;;4896771;29;20434;-68
2022/05/16 02:39:23;;;;;;;7.15;2.03;;;;;;;;;;4896591;29;20021;-68
2022/05/16 02:41:50;;;;;;;7.97;1.90;;;;;;;;;;4896889;29;20040;-68
2022/05/16 02:44:16;;;;;;;5.10;1.88;;;;;;;;;;4896654;29;20039;-68
2022/05/16 02:46:44;;;;;;;6.95;2.20;;;;;;;;;;4896900;29;20028;-68
2022/05/16 02:49:10;;;;;;;6.20;2.28;;;;;;;;;;4896620;29;20029;-68
2022/05/16 02:51:37;;;;;;;10.88;2.40;;;;;;;;;;4896475;29;20017;-68
2022/05/16 02:54:03;;;;;;;5.60;2.10;;;;;;;;;;4896507;29;20435;-68
2022/05/16 02:56:30;;;;;;;9.32;1.83;;;;;;;;;;4896447;29;20027;-68
2022/05/16 02:58:56;;;;;;;7.72;1.90;;;;;;;;;;4896618;29;20031;-68
2022/05/16 03:01:23;;;;;;;9.95;2.30;;;;;;;;;;4897073;29;20450;-68
2022/05/16 03:03:49;;;;;;;13.52;2.03;;;;;;;;;;4896308;29;20029;-68
2022/05/16 03:06:16;;;;;;;8.05;2.17;;;;;;;;;;4896338;29;20027;-68
2022/05/16 03:08:42;;;;;;;10.32;2.20;;;;;;;;;;4896634;29;20039;-68
2022/05/16 03:11:08;;;;;;;13.38;2.42;;;;;;;;;;4896362;29;20035;-68
2022/05/16 03:13:35;;;;;;;10.85;2.38;;;;;;;;;;4896945;29;20076;-68
2022/05/16 03:16:02;;;;;;;5.90;1.88;;;;;;;;;;4899317;29;20020;-68
2022/05/16 03:18:30;;;;;;;8.25;2.83;;;;;;;;;;4914054;29;20040;-67
2022/05/16 03:20:57;;;;;;;10.85;2.40;;;;;;;;;;4899904;29;20036;-68
2022/05/16 03:23:23;;;;;;;8.65;1.63;;;;;;;;;;4899978;29;20058;-68
2022/05/16 03:25:49;;;;;;;7.97;2.20;;;;;;;;;;4899963;29;20035;-68
2022/05/16 03:28:16;;;;;;;9.93;2.10;;;;;;;;;;4900386;29;20029;-68
2022/05/16 03:30:42;;;;;;;9.65;2.15;;;;;;;;;;4899702;29;20486;-68
2022/05/16 03:33:09;;;;;;;9.90;2.60;;;;;;;;;;4899309;29;20029;-68
2022/05/16 03:35:36;;;;;;;7.10;1.80;;;;;;;;;;4899649;29;20486;-68
2022/05/16 03:38:03;;;;;;;9.25;2.17;;;;;;;;;;4899796;29;20040;-68
2022/05/16 03:40:42;;;;;;;8.43;2.38;;;;;;;;;;4900290;29;20498;-68
2022/05/16 03:43:13;;;;;;;8.25;2.08;;;;;;;;;;4899759;29;20037;-68
2022/05/16 03:45:39;;;;;;;5.28;1.83;;;;;;;;;;4899489;29;20528;-68
2022/05/16 03:48:06;;;;;;;7.38;2.35;;;;;;;;;;4899189;29;20487;-68
2022/05/16 03:50:33;;;;;;;12.40;2.33;;;;;;;;;;4899406;29;20021;-68
2022/05/16 03:53:00;;;;;;;12.80;2.47;;;;;;;;;;4899483;29;20028;-68
2022/05/16 03:55:26;;;;;;;5.00;1.60;;;;;;;;;;4899959;29;20039;-68
2022/05/16 03:57:53;;;;;;;10.70;1.80;;;;;;;;;;4899179;29;20041;-68
2022/05/16 04:00:19;;;;;;;9.30;2.13;;;;;;;;;;4899441;29;20028;-68
2022/05/16 04:02:46;;;;;;;9.57;2.05;;;;;;;;;;4898826;29;20039;-68
2022/05/16 04:05:18;;;;;;;9.18;2.03;;;;;;;;;;4899394;29;20031;-68
2022/05/16 04:07:46;;;;;;;9.52;2.08;;;;;;;;;;4899128;29;20024;-68
2022/05/16 04:10:13;;;;;;;9.43;2.65;;;;;;;;;;4897736;29;20068;-68
2022/05/16 04:12:40;;;;;;;6.10;1.98;;;;;;;;;;4899283;29;20033;-68
2022/05/16 04:15:07;;;;;;;11.88;2.65;;;;;;;;;;4898928;29;20504;-68
2022/05/16 04:17:33;;;;;;;8.07;2.63;;;;;;;;;;4898626;29;20035;-68
2022/05/16 04:20:00;;;;;;;8.02;2.40;;;;;;;;;;4899025;29;20032;-68
2022/05/16 04:22:26;;;;;;;12.32;2.47;;;;;;;;;;4899231;29;20075;-68
2022/05/16 04:24:54;;;;;;;9.20;2.20;;;;;;;;;;4898826;29;20487;-68
2022/05/16 04:27:20;;;;;;;8.05;2.38;;;;;;;;;;4897549;29;20017;-68
2022/05/16 04:29:47;;;;;;;3.92;1.98;;;;;;;;;;4898506;29;20668;-68
2022/05/16 04:32:13;;;;;;;10.35;2.45;;;;;;;;;;4898347;29;20024;-68
2022/05/16 04:34:39;;;;;;;9.90;2.72;;;;;;;;;;4898834;29;20375;-68
2022/05/16 04:37:06;;;;;;;10.10;2.58;;;;;;;;;;4898962;29;20045;-68
2022/05/16 04:39:32;;;;;;;13.93;2.55;;;;;;;;;;4898455;29;20033;-68
2022/05/16 04:44:51;;;;;;;5.15;2.20;;;;;;;;;;4895785;29;20048;-68
2022/05/16 04:47:17;;;;;;;11.57;2.40;;;;;;;;;;4880896;29;20040;-68
2022/05/16 04:49:44;;;;;;;13.05;2.97;;;;;;;;;;4896298;29;20043;-69
2022/05/16 04:52:11;;;;;;;11.23;2.55;;;;;;;;;;4896679;29;20405;-68
2022/05/16 04:54:40;;;;;;;9.52;2.30;;;;;;;;;;4896043;29;20021;-68
2022/05/16 04:57:07;;;;;;;13.27;2.22;;;;;;;;;;4895841;29;20037;-68
2022/05/16 04:59:33;;;;;;;10.55;2.38;;;;;;;;;;4895692;29;20029;-70
2022/05/16 05:02:00;;;;;;;8.35;2.08;;;;;;;;;;4896068;29;20433;-68
2022/05/16 05:04:26;;;;;;;7.72;2.33;;;;;;;;;;4896845;29;20076;-68
2022/05/16 05:06:52;;;;;;;10.77;2.45;;;;;;;;;;4895928;29;20094;-70
2022/05/16 05:09:18;;;;;;;13.25;2.70;;;;;;;;;;4880341;29;20047;-70
2022/05/16 05:14:33;;;;;;;8.90;2.42;;;;;;;;;;4895480;29;20045;-70
2022/05/16 05:17:04;;;;;;;11.63;2.65;;;;;;;;;;4895764;29;20070;-69
2022/05/16 05:19:31;;;;;;;9.00;2.58;;;;;;;;;;4892536;29;20040;-69
2022/05/16 05:21:57;;;;;;;10.55;2.47;;;;;;;;;;4896743;29;20108;-69
2022/05/16 05:24:24;;;;;;;8.02;2.28;;;;;;;;;;4897644;29;20035;-69
2022/05/16 05:26:50;;;;;;;7.07;2.30;;;;;;;;;;4897877;29;20032;-69
2022/05/16 05:29:18;;;;;;;13.35;2.45;;;;;;;;;;4897531;29;20025;-69
2022/05/16 05:31:45;;;;;;;10.55;2.28;;;;;;;;;;4897623;29;20020;-70
2022/05/16 05:34:12;;;;;;;17.92;2.38;;;;;;;;;;4898057;29;20035;-69
2022/05/16 05:36:39;;;;;;;7.65;2.50;;;;;;;;;;4897352;29;20031;-69
2022/05/16 05:39:06;;;;;;;10.63;2.30;;;;;;;;;;4897019;29;20024;-69
2022/05/16 05:41:32;;;;;;;9.57;2.42;;;;;;;;;;4897380;29;20402;-70
2022/05/16 05:43:58;;;;;;;8.40;2.42;;;;;;;;;;4897145;29;20031;-69
2022/05/16 05:46:26;;;;;;;11.95;2.70;;;;;;;;;;4898119;29;20033;-69
2022/05/16 05:48:52;;;;;;;10.35;2.63;;;;;;;;;;4897082;29;20028;-69
2022/05/16 05:51:19;;;;;;;9.70;2.30;;;;;;;;;;4897170;29;20024;-69
2022/05/16 05:53:46;;;;;;;12.40;2.55;;;;;;;;;;4897223;29;20039;-69
2022/05/16 05:56:13;;;;;;;13.45;2.20;;;;;;;;;;4897096;29;20052;-69
2022/05/16 05:58:39;;;;;;;10.32;2.25;;;;;;;;;;4897005;29;20048;-69
2022/05/16 06:01:06;;;;;;;7.68;2.50;;;;;;;;;;4896633;29;20035;-69
2022/05/16 06:03:33;;;;;;;7.03;2.35;;;;;;;;;;4897138;29;20035;-69
2022/05/16 06:05:59;;;;;;;10.43;2.35;;;;;;;;;;4897083;29;20520;-71
2022/05/16 06:08:26;;;;;;;11.93;2.50;;;;;;;;;;4896101;29;20409;-69
2022/05/16 06:10:52;;;;;;;8.10;2.55;;;;;;;;;;4894111;29;20040;-70
2022/05/16 06:13:19;;;;;;;10.38;2.33;;;;;;;;;;4895357;29;20032;-70
2022/05/16 06:15:45;;;;;;;10.65;2.72;;;;;;;;;;4896662;29;20032;-70
2022/05/16 06:18:12;;;;;;;8.20;2.50;;;;;;;;;;4896347;29;20037;-70
2022/05/16 06:20:39;;;;;;;11.40;2.72;;;;;;;;;;4894046;29;20036;-70
2022/05/16 06:23:05;;;;;;;7.10;2.60;;;;;;;;;;4896132;29;20062;-70
2022/05/16 06:25:32;;;;;;;11.93;2.47;;;;;;;;;;4897120;29;20017;-70
2022/05/16 06:28:01;;;;;;;6.70;2.22;;;;;;;;;;4893412;29;20031;-70
2022/05/16 06:30:28;;;;;;;8.60;2.40;;;;;;;;;;4895393;29;20486;-70
2022/05/16 06:32:54;;;;;;;12.73;2.15;;;;;;;;;;4895366;29;20087;-70
2022/05/16 06:35:20;;;;;;;13.95;2.85;;;;;;;;;;4896582;29;20087;-70
2022/05/16 06:37:47;;;;;;;12.32;2.38;;;;;;;;;;4895301;29;20044;-70
2022/05/16 06:40:14;;;;;;;10.15;2.33;;;;;;;;;;4894736;29;20553;-70
2022/05/16 06:42:41;;;;;;;7.82;2.25;;;;;;;;;;4896004;29;20043;-70
2022/05/16 06:45:08;;;;;;;12.02;2.00;;;;;;;;;;4893773;29;20029;-69
2022/05/16 06:47:34;;;;;;;10.95;2.70;;;;;;;;;;4895499;29;20048;-70
2022/05/16 06:50:01;;;;;;;8.88;2.47;;;;;;;;;;4889942;29;20029;-70
2022/05/16 06:52:27;;;;;;;7.55;2.13;;;;;;;;;;4900162;29;20020;-70
2022/05/16 06:54:54;;;;;;;11.02;2.92;;;;;;;;;;4899875;29;20029;-70
2022/05/16 06:57:21;;;;;;;12.27;2.55;;;;;;;;;;4899680;29;20028;-70
2022/05/16 06:59:47;;;;;;;12.18;2.90;;;;;;;;;;4899203;29;20024;-70
2022/05/16 07:02:13;;;;;;;8.93;2.75;;;;;;;;;;4898717;29;20031;-70
2022/05/16 07:04:40;;;;;;;7.22;2.40;;;;;;;;;;4899703;29;20039;-69
2022/05/16 07:07:08;;;;;;;10.43;2.10;;;;;;;;;;4899632;29;20486;-70
2022/05/16 07:09:37;;;;;;;9.18;2.20;;;;;;;;;;4899305;29;20039;-69
2022/05/16 07:12:04;;;;;;;10.55;2.97;;;;;;;;;;4898979;29;20029;-70
2022/05/16 07:14:30;;;;;;;10.23;2.97;;;;;;;;;;4898840;29;20394;-69
2022/05/16 07:16:57;;;;;;;7.30;2.40;;;;;;;;;;4898338;29;20049;-71
2022/05/16 07:19:23;;;;;;;10.82;2.33;;;;;;;;;;4901675;29;20039;-68
2022/05/16 07:21:50;;;;;;;8.57;2.40;;;;;;;;;;4897610;29;20049;-68
2022/05/16 07:24:16;;;;;;;9.80;2.65;;;;;;;;;;4897962;29;20031;-69
2022/05/16 07:29:27;;;;;;;9.82;2.75;;;;;;;;;;4896592;29;20401;-71
2022/05/16 07:31:54;;;;;;;13.20;3.10;;;;;;;;;;4897325;29;20031;-70
2022/05/16 07:34:20;;;;;;;7.45;2.70;;;;;;;;;;4897492;29;20033;-71
2022/05/16 07:36:47;;;;;;;11.82;2.80;;;;;;;;;;4897903;29;20397;-71
2022/05/16 07:39:13;;;;;;;7.63;2.67;;;;;;;;;;4896543;29;20035;-70
2022/05/16 07:41:39;;;;;;;13.25;3.05;;;;;;;;;;4897863;29;20025;-74
2022/05/16 07:44:06;;;;;;;11.18;3.42;;;;;;;;;;4897658;29;22056;-74
2022/05/16 07:46:32;;;;;;;8.45;2.97;;;;;;;;;;4897593;29;20494;-73
2022/05/16 07:48:59;;;;;;;8.30;2.95;;;;;;;;;;4898073;29;20025;-72
2022/05/16 07:51:25;;;;;;;11.68;2.78;;;;;;;;;;4897619;29;20029;-76
2022/05/16 07:53:51;;;;;;;8.80;3.15;;;;;;;;;;4897865;29;20039;-74
2022/05/16 07:56:18;;;;;;;14.35;3.30;;;;;;;;;;4897607;29;20039;-74
2022/05/16 07:58:44;;;;;;;8.05;2.95;;;;;;;;;;4897804;29;20047;-77
2022/05/16 08:01:10;;;;;;;10.38;3.10;;;;;;;;;;4898020;29;20025;-77
2022/05/16 08:03:37;;;;;;;9.10;2.90;;;;;;;;;;4898961;29;20033;-74
2022/05/16 08:06:03;;;;;;;9.73;2.85;;;;;;;;;;4898955;29;20062;-74
2022/05/16 08:11:15;;;;;;;9.05;3.17;;;;;;;;;;4884083;29;20591;-81
2022/05/16 08:13:42;;;;;;;7.47;3.25;;;;;;;;;;4897868;29;20482;-75
2022/05/16 08:16:09;;;;;;;10.50;3.20;;;;;;;;;;4898607;29;20021;-76
2022/05/16 08:18:36;;;;;;;14.23;3.05;;;;;;;;;;4898072;29;20045;-73
2022/05/16 08:21:02;;;;;;;8.52;2.58;;;;;;;;;;4897679;29;20033;-72
2022/05/16 08:23:29;;;;;;;8.90;2.83;;;;;;;;;;4898224;29;20376;-72
2022/05/16 08:25:58;;;;;;;10.13;2.80;;;;;;;;;;4897783;29;20038;-72
2022/05/16 08:28:25;;;;;;;15.02;2.95;;;;;;;;;;4898549;29;20032;-75
2022/05/16 08:30:51;;;;;;;10.00;3.28;;;;;;;;;;4898282;29;20500;-74
2022/05/16 08:33:18;;;;;;;29.73;4.30;;;;;;;;;;4897492;29;20079;-73
2022/05/16 08:39:51;;;;;;;15.10;2.85;;;;;;;;;;4897820;29;20031;-72
2022/05/16 08:41:17;;;;;;;7.60;2.63;;;;;;;;;;4890219;29;20402;-74
2022/05/16 08:43:50;;;;;;;10.57;3.22;;;;;;;;;;4897806;29;20035;-77
2022/05/16 08:46:25;;;;;;;8.35;2.17;;;;;;;;;;4897046;29;20047;-72
2022/05/16 08:48:56;;;;;;;11.05;2.80;;;;;;;;;;4898298;29;20039;-71
2022/05/16 08:51:24;;;;;;;9.10;2.90;;;;;;;;;;4897250;29;20024;-73
2022/05/16 08:53:55;;;;;;;11.18;3.10;;;;;;;;;;4896806;29;20043;-75
2022/05/16 08:56:25;;;;;;;14.15;3.25;;;;;;;;;;4897755;29;20565;-75
2022/05/16 08:59:00;;;;;;;9.65;2.90;;;;;;;;;;4897305;29;20067;-71
2022/05/16 09:01:34;;;;;;;7.60;2.58;;;;;;;;;;4897723;29;20017;-74
2022/05/16 09:04:02;;;;;;;9.98;3.10;;;;;;;;;;4896837;29;20487;-73
2022/05/16 09:06:28;;;;;;;11.05;2.72;;;;;;;;;;4896513;29;20033;-72
2022/05/16 09:09:11;;;;;;;11.15;3.05;;;;;;;;;;4897405;29;20050;-76
2022/05/16 09:11:37;;;;;;;9.68;2.75;;;;;;;;;;4897127;29;20035;-74
2022/05/16 09:14:07;;;;;;;11.70;3.25;;;;;;;;;;4895997;29;20017;-74
2022/05/16 09:16:45;;;;;;;12.43;2.85;;;;;;;;;;4897733;29;20048;-71
2022/05/16 09:19:20;;;;;;;15.45;3.03;;;;;;;;;;4897266;29;20032;-73
2022/05/16 09:21:49;;;;;;;9.68;2.78;;;;;;;;;;4896231;29;20547;-72
2022/05/16 09:24:21;;;;;;;11.63;3.15;;;;;;;;;;4896543;29;20021;-73
2022/05/16 09:26:50;;;;;;;10.38;2.85;;;;;;;;;;4897149;29;20043;-70
2022/05/16 09:29:25;;;;;;;8.15;2.92;;;;;;;;;;4896915;29;20037;-71
2022/05/16 09:31:53;;;;;;;11.00;3.30;;;;;;;;;;4897082;29;21114;-72
2022/05/16 09:34:20;;;;;;;11.43;2.90;;;;;;;;;;4897266;29;20051;-72
2022/05/16 09:36:49;;;;;;;11.25;2.90;;;;;;;;;;4895991;29;20521;-73
2022/05/16 09:39:24;;;;;;;6.85;3.28;;;;;;;;;;4926669;29;20037;-73
2022/05/16 09:41:56;;;;;;;8.38;2.90;;;;;;;;;;4895971;29;20043;-70
2022/05/16 09:44:34;;;;;;;9.85;3.13;;;;;;;;;;4896593;29;20032;-72
2022/05/16 09:47:19;;;;;;;9.70;2.72;;;;;;;;;;4896693;29;20029;-70
2022/05/16 09:50:03;;;;;;;12.40;3.10;;;;;;;;;;4893899;29;20028;-72
2022/05/16 09:52:34;;;;;;;6.93;2.38;;;;;;;;;;4896782;29;20032;-74
2022/05/16 09:55:03;;;;;;;11.95;3.05;;;;;;;;;;4896804;29;20058;-72
2022/05/16 09:57:32;;;;;;;13.77;3.50;;;;;;;;;;4895576;29;20029;-75
2022/05/16 10:00:15;;;;;;;10.43;2.90;;;;;;;;;;4896649;29;20033;-71
2022/05/16 10:02:42;;;;;;;17.00;3.33;;;;;;;;;;4896257;29;20020;-71
2022/05/16 10:05:21;;;;;;;16.75;3.53;;;;;;;;;;4895404;29;20021;-71
2022/05/16 10:07:49;;;;;;;10.20;3.10;;;;;;;;;;4896393;29;20525;-74
2022/05/16 10:10:19;;;;;;;11.60;3.42;;;;;;;;;;4897135;29;20036;-75
2022/05/16 10:12:46;;;;;;;11.50;3.08;;;;;;;;;;4896043;29;20037;-76
2022/05/16 10:15:13;;;;;;;8.88;3.03;;;;;;;;;;4895938;29;20371;-74
2022/05/16 10:17:40;;;;;;;14.07;3.22;;;;;;;;;;4896401;29;20051;-73
2022/05/16 10:20:27;;;;;;;6.40;2.80;;;;;;;;;;4895963;29;20402;-69
2022/05/16 10:22:59;;;;;;;10.00;3.13;;;;;;;;;;4896117;29;20477;-68
2022/05/16 10:25:29;;;;;;;12.52;3.53;;;;;;;;;;4895808;29;20033;-72
2022/05/16 10:27:58;;;;;;;9.02;3.13;;;;;;;;;;4895285;29;20048;-71
2022/05/16 10:30:28;;;;;;;10.38;3.10;;;;;;;;;;4895657;29;20021;-71
2022/05/16 10:35:48;;;;;;;8.05;2.65;;;;;;;;;;4895436;29;20035;-71
2022/05/16 10:38:24;;;;;;;10.55;3.08;;;;;;;;;;4895356;29;20028;-72
2022/05/16 10:40:54;;;;;;;11.27;3.08;;;;;;;;;;4895561;29;20401;-69
2022/05/16 10:43:26;;;;;;;10.90;3.00;;;;;;;;;;4896142;29;20040;-71
2022/05/16 10:45:55;;;;;;;11.00;3.42;;;;;;;;;;4895505;29;20023;-73
2022/05/16 10:48:26;;;;;;;11.53;2.80;;;;;;;;;;4894853;29;20484;-73
2022/05/16 10:51:07;;;;;;;10.38;3.03;;;;;;;;;;4895167;29;20034;-73
2022/05/16 10:53:37;;;;;;;8.75;2.85;;;;;;;;;;4895350;29;20083;-73
2022/05/16 10:56:06;;;;;;;14.63;3.13;;;;;;;;;;4881076;29;20021;-73
2022/05/16 10:58:35;;;;;;;8.95;2.67;;;;;;;;;;4893968;29;20029;-72
2022/05/16 11:01:06;;;;;;;10.45;3.00;;;;;;;;;;4894523;29;20033;-73
2022/05/16 11:03:55;;;;;;;13.23;2.97;;;;;;;;;;4894893;29;20029;-73
2022/05/16 11:06:22;;;;;;;;;;;;;;;;;;4889102;29;20035;-73
2022/05/16 11:08:49;;;;;;;12.60;2.72;;;;;;;;;;4888830;29;19920;-74
2022/05/16 11:11:53;;;;;;;9.95;3.22;;;;;;;;;;4891519;29;20044;-73
2022/05/16 11:14:19;;;;;;;9.63;2.97;;;;;;;;;;4807439;29;20040;-73
2022/05/16 11:16:50;;;;;;;8.23;3.10;;;;;;;;;;4818078;29;20047;-74
2022/05/16 11:19:29;;;;;;;10.50;2.75;;;;;;;;;;4805444;29;20050;-72
2022/05/16 11:21:55;;;;;;;10.05;3.22;;;;;;;;;;4814174;29;20568;-72
2022/05/16 11:24:28;;;;;;;7.85;3.10;;;;;;;;;;4818856;29;20187;-66
2022/05/16 11:26:54;;;;;;;8.20;2.95;;;;;;;;;;4814908;29;20039;-68
2022/05/16 11:29:32;;;;;;;6.65;2.70;;;;;;;;;;4818914;29;20034;-69
2022/05/16 11:32:03;;;;;;;15.95;3.30;;;;;;;;;;4818462;29;20039;-68
2022/05/16 11:34:41;;;;;;;7.60;2.63;;;;;;;;;;4815849;29;20058;-68
2022/05/16 11:37:25;;;;;;;12.25;3.13;;;;;;;;;;4821538;29;20079;-69
2022/05/16 11:39:57;;;;;;;7.35;3.25;;;;;;;;;;4818150;29;20062;-68
2022/05/16 11:42:55;;;;;;;9.40;2.90;;;;;;;;;;4816166;29;20493;-69
2022/05/16 11:45:30;;;;;;;9.20;3.00;;;;;;;;;;4803897;29;20102;-68
2022/05/16 11:48:00;;;;;;;7.60;2.83;;;;;;;;;;4818086;29;20060;-68
2022/05/16 11:50:35;;;;;;;9.85;3.17;;;;;;;;;;4815876;29;20027;-67
2022/05/16 11:53:11;;;;;;;8.55;2.80;;;;;;;;;;4820768;29;20576;-68
2022/05/16 12:01:34;;;;;;;10.43;2.88;;;;;;;;;;4820406;29;20046;-71
2022/05/16 12:04:20;;;;;;;11.68;3.40;;;;;;;;;;4819069;29;20042;-71
2022/05/16 12:06:53;;;;;;;8.32;2.63;;;;;;;;;;4819240;29;20030;-71
2022/05/16 12:09:19;;;;;;;10.25;3.10;;;;;;;;;;4820354;29;20048;-71
2022/05/16 12:11:49;;;;;;;10.30;3.45;;;;;;;;;;4820301;29;20496;-71
2022/05/16 12:14:23;;;;;;;10.65;3.28;;;;;;;;;;4819756;29;20085;-71
2022/05/16 12:16:54;;;;;;;11.02;2.92;;;;;;;;;;4820654;29;20066;-72
2022/05/16 12:19:32;;;;;;;8.18;3.05;;;;;;;;;;4821901;29;20035;-71
2022/05/16 12:22:04;;;;;;;11.43;2.97;;;;;;;;;;4890516;29;20144;-70
2022/05/16 12:24:41;;;;;;;11.68;3.08;;;;;;;;;;4897639;29;20087;-71
2022/05/16 12:27:16;;;;;;;8.38;2.70;;;;;;;;;;4896878;29;20020;-71
2022/05/16 12:29:52;;;;;;;11.75;2.95;;;;;;;;;;4896861;29;20083;-71
2022/05/16 12:32:22;;;;;;;8.02;3.00;;;;;;;;;;4897348;29;20027;-71
2022/05/16 12:34:50;;;;;;;8.88;2.83;;;;;;;;;;4896665;29;20025;-71
2022/05/16 12:37:18;;;;;;;13.32;3.55;;;;;;;;;;4896811;29;20036;-71
2022/05/16 12:40:03;;;;;;;6.22;2.83;;;;;;;;;;4897220;29;20041;-71
2022/05/16 12:42:49;;;;;;;10.75;2.90;;;;;;;;;;4897319;29;20028;-71
2022/05/16 12:45:28;;;;;;;9.95;2.97;;;;;;;;;;4897190;29;20031;-71
2022/05/16 12:48:02;;;;;;;9.05;3.10;;;;;;;;;;4895977;29;20045;-71
2022/05/16 12:50:41;;;;;;;13.00;3.20;;;;;;;;;;4897243;29;20451;-71
2022/05/16 12:53:11;;;;;;;11.50;3.05;;;;;;;;;;4882911;29;20017;-71
2022/05/16 12:55:52;;;;;;;9.13;3.03;;;;;;;;;;4895143;29;20036;-71
2022/05/16 12:58:35;;;;;;;12.48;3.03;;;;;;;;;;4895112;29;20032;-72
2022/05/16 13:01:13;;;;;;;12.68;3.20;;;;;;;;;;4897963;29;20033;-72
2022/05/16 13:03:42;;;;;;;11.20;3.28;;;;;;;;;;4896692;29;20038;-71
2022/05/16 13:06:25;;;;;;;12.13;3.33;;;;;;;;;;4896695;29;20025;-72
2022/05/16 13:08:55;;;;;;;8.95;2.67;;;;;;;;;;4900765;29;20311;-71
2022/05/16 13:11:26;;;;;;;6.80;2.40;;;;;;;;;;4896641;29;20023;-71
2022/05/16 13:14:12;;;;;;;16.70;3.63;;;;;;;;;;4896184;29;20058;-72
2022/05/16 13:16:59;;;;;;;10.98;3.17;;;;;;;;;;4893937;29;20520;-71
2022/05/16 13:19:32;;;;;;;12.27;2.95;;;;;;;;;;4896974;29;20391;-71
2022/05/16 13:22:10;;;;;;;16.13;3.50;;;;;;;;;;4896284;29;20037;-71
2022/05/16 13:24:37;;;;;;;12.65;3.10;;;;;;;;;;4896169;29;20036;-72
2022/05/16 13:29:50;;;;;;;8.70;3.33;;;;;;;;;;4896339;29;20041;-71
2022/05/16 13:32:18;;;;;;;13.55;3.30;;;;;;;;;;4903974;29;20402;-72
2022/05/16 13:34:48;;;;;;;9.85;2.97;;;;;;;;;;4896222;29;20028;-72
2022/05/16 13:37:19;;;;;;;9.13;2.95;;;;;;;;;;4895110;29;20024;-72
2022/05/16 13:39:47;;;;;;;10.35;2.88;;;;;;;;;;4895320;29;20095;-71
2022/05/16 13:42:13;;;;;;;9.90;3.10;;;;;;;;;;4895571;29;20043;-71
2022/05/16 13:44:41;;;;;;;10.63;2.60;;;;;;;;;;4896019;29;20028;-72
2022/05/16 13:47:10;;;;;;;10.30;2.85;;;;;;;;;;4896030;29;20033;-71
2022/05/16 13:49:37;;;;;;;9.73;2.78;;;;;;;;;;4896198;29;20028;-71
2022/05/16 13:52:03;;;;;;;11.23;3.15;;;;;;;;;;4896274;29;20033;-72
2022/05/16 13:54:31;;;;;;;12.98;3.10;;;;;;;;;;4895998;29;20037;-71
2022/05/16 13:56:59;;;;;;;12.63;2.80;;;;;;;;;;4895499;29;20035;-72
2022/05/16 13:59:27;;;;;;;11.98;2.80;;;;;;;;;;4895788;29;20025;-72
2022/05/16 14:02:04;;;;;;;10.40;2.78;;;;;;;;;;4895643;29;20036;-71
2022/05/16 14:04:37;;;;;;;14.57;2.75;;;;;;;;;;4892488;29;20501;-71
2022/05/16 14:07:06;;;;;;;9.10;2.90;;;;;;;;;;4895038;29;20039;-71
2022/05/16 14:09:36;;;;;;;12.45;3.40;;;;;;;;;;4895890;29;20020;-72
2022/05/16 14:12:04;;;;;;;10.60;2.95;;;;;;;;;;4894485;29;20549;-71
2022/05/16 14:14:33;;;;;;;13.50;2.75;;;;;;;;;;4894981;29;20023;-72
2022/05/16 14:17:02;;;;;;;12.25;3.15;;;;;;;;;;4895497;29;20401;-71
2022/05/16 14:19:39;;;;;;;10.35;3.20;;;;;;;;;;4895073;29;20402;-71
2022/05/16 14:22:11;;;;;;;11.25;2.95;;;;;;;;;;4892427;29;20574;-71
2022/05/16 14:24:44;;;;;;;14.45;3.60;;;;;;;;;;4894898;29;20083;-71
2022/05/16 14:27:24;;;;;;;11.75;3.38;;;;;;;;;;4925305;29;20084;-71
2022/05/16 14:29:57;;;;;;;9.20;2.55;;;;;;;;;;4895334;29;20048;-71
2022/05/16 14:32:23;;;;;;;11.48;2.72;;;;;;;;;;4909839;29;20378;-71
2022/05/16 14:34:58;;;;;;;11.82;3.00;;;;;;;;;;4895287;29;20040;-71
2022/05/16 14:37:27;;;;;;;13.57;3.00;;;;;;;;;;4896103;29;20029;-71
2022/05/16 14:40:05;;;;;;;8.32;2.40;;;;;;;;;;4894678;29;20032;-71
2022/05/16 14:42:41;;;;;;;12.13;2.40;;;;;;;;;;4894628;29;20572;-71
2022/05/16 14:45:09;;;;;;;9.82;3.10;;;;;;;;;;4895300;29;20027;-72
2022/05/16 14:47:40;;;;;;;8.45;2.40;;;;;;;;;;4894714;29;20046;-71
2022/05/16 14:50:09;;;;;;;8.45;2.40;;;;;;;;;;4910824;29;20063;-71
2022/05/16 14:52:37;;;;;;;13.18;2.63;;;;;;;;;;4895194;29;20325;-71
2022/05/16 14:55:24;;;;;;;11.20;2.78;;;;;;;;;;4894922;29;20037;-71
2022/05/16 14:57:50;;;;;;;8.65;2.22;;;;;;;;;;4892722;29;20043;-72
2022/05/16 15:05:47;;;;;;;15.20;2.95;;;;;;;;;;4894611;29;20028;-71
2022/05/16 15:08:17;;;;;;;9.98;2.50;;;;;;;;;;4894866;29;20044;-71
2022/05/16 15:10:43;;;;;;;8.85;2.28;;;;;;;;;;4895995;29;20393;-71
2022/05/16 15:13:10;;;;;;;9.88;3.00;;;;;;;;;;4899577;29;20046;-71
2022/05/16 15:15:37;;;;;;;10.88;2.90;;;;;;;;;;4899587;29;20025;-71
2022/05/16 15:18:03;;;;;;;14.35;2.60;;;;;;;;;;4899712;29;20033;-71
2022/05/16 15:20:30;;;;;;;13.55;2.88;;;;;;;;;;4899631;29;20076;-71
2022/05/16 15:22:57;;;;;;;10.95;2.65;;;;;;;;;;4899251;29;20031;-69
2022/05/16 15:25:23;;;;;;;17.67;2.83;;;;;;;;;;4899692;29;20390;-70
2022/05/16 15:27:50;;;;;;;14.45;2.50;;;;;;;;;;4898004;29;20091;-70